createdAt,value
2022-09-06T00:00:58.053Z,9.73
2022-09-06T00:03:27.584Z,9.43
2022-09-06T00:05:54.513Z,10.05
2022-09-06T00:08:21.105Z,9.98
2022-09-06T00:10:47.589Z,9.80
2022-09-06T00:13:14.129Z,10.18
2022-09-06T00:15:40.754Z,10.48
2022-09-06T00:18:07.679Z,11.43
2022-09-06T00:20:34.871Z,10.90
2022-09-06T00:23:03.676Z,10.98
2022-09-06T00:25:30.738Z,11.82
2022-09-06T00:27:58.775Z,11.52
2022-09-06T00:30:26.178Z,10.55
2022-09-06T00:32:54.737Z,10.90
2022-09-06T00:35:24.648Z,9.95
2022-09-06T00:37:55.920Z,11.30
2022-09-06T00:40:22.377Z,11.10
2022-09-06T00:42:48.806Z,11.60
2022-09-06T00:45:15.556Z,10.88
2022-09-06T00:47:43.158Z,9.38
2022-09-06T00:50:11.676Z,9.70
2022-09-06T00:52:39.394Z,9.82
2022-09-06T00:55:06.574Z,9.82
2022-09-06T00:57:33.491Z,10.13
2022-09-06T01:00:00.770Z,10.35
2022-09-06T01:02:27.563Z,10.05
2022-09-06T01:04:57.695Z,10.40
2022-09-06T01:07:30.111Z,10.07
2022-09-06T01:10:21.898Z,10.90
2022-09-06T01:13:08.119Z,10.27
2022-09-06T01:16:02.999Z,9.43
2022-09-06T01:18:48.753Z,9.90
2022-09-06T01:21:31.592Z,9.98
2022-09-06T01:27:33.673Z,11.23
2022-09-06T01:30:13.012Z,10.55
2022-09-06T01:33:00.302Z,10.25
2022-09-06T01:35:39.635Z,11.60
2022-09-06T01:38:08.273Z,12.25
2022-09-06T01:40:37.717Z,11.80
2022-09-06T01:43:11.327Z,12.25
2022-09-06T01:46:05.534Z,12.40
2022-09-06T01:48:45.006Z,13.30
2022-09-06T01:51:26.946Z,13.18
2022-09-06T01:54:26.253Z,13.68
2022-09-06T01:57:17.421Z,13.95
2022-09-06T02:00:00.596Z,13.60
2022-09-06T02:02:48.944Z,13.70
2022-09-06T02:05:27.538Z,12.45
2022-09-06T02:07:59.043Z,13.98
2022-09-06T02:10:41.125Z,14.35
2022-09-06T02:13:10.758Z,13.30
2022-09-06T02:15:41.697Z,12.57
2022-09-06T02:18:19.062Z,12.48
2022-09-06T02:20:50.961Z,12.48
2022-09-06T02:23:19.428Z,11.90
2022-09-06T02:25:59.580Z,11.70
2022-09-06T02:28:26.809Z,11.23
2022-09-06T02:31:02.866Z,10.88
2022-09-06T02:33:33.421Z,10.77
2022-09-06T02:36:06.059Z,10.70
2022-09-06T02:41:01.165Z,10.43
2022-09-06T02:43:28.708Z,9.95
2022-09-06T02:45:55.159Z,9.82
2022-09-06T02:48:22.397Z,10.20
2022-09-06T02:50:48.916Z,9.10
2022-09-06T02:53:15.876Z,10.10
2022-09-06T02:55:42.706Z,9.45
2022-09-06T02:58:11.219Z,10.52
2022-09-06T03:00:37.953Z,9.48
2022-09-06T03:03:04.905Z,9.57
2022-09-06T03:05:31.926Z,9.07
2022-09-06T03:07:58.515Z,9.68
2022-09-06T03:10:26.162Z,9.45
2022-09-06T03:12:53.479Z,9.90
2022-09-06T03:15:20.383Z,10.25
2022-09-06T03:17:46.906Z,10.90
2022-09-06T03:20:13.553Z,12.38
2022-09-06T03:22:40.914Z,11.75
2022-09-06T03:25:08.945Z,11.45
2022-09-06T03:27:35.925Z,11.75
2022-09-06T03:30:02.814Z,11.88
2022-09-06T03:32:29.267Z,11.75
2022-09-06T03:34:55.784Z,12.38
2022-09-06T03:37:22.218Z,13.23
2022-09-06T03:39:48.695Z,12.55
2022-09-06T03:42:15.142Z,12.35
2022-09-06T03:44:41.592Z,12.82
2022-09-06T03:47:08.057Z,12.68
2022-09-06T03:49:35.773Z,13.40
2022-09-06T03:52:02.382Z,12.63
2022-09-06T03:54:29.086Z,13.75
2022-09-06T03:56:55.788Z,14.18
2022-09-06T03:59:22.214Z,13.98
2022-09-06T04:01:48.651Z,14.55
2022-09-06T04:04:15.115Z,13.98
2022-09-06T04:06:41.564Z,15.07
2022-09-06T04:09:08.027Z,14.30
2022-09-06T04:11:34.500Z,15.15
2022-09-06T04:14:00.962Z,15.68
2022-09-06T04:16:27.467Z,14.57
2022-09-06T04:18:53.965Z,14.45
2022-09-06T04:21:20.411Z,14.52
2022-09-06T04:23:49.720Z,15.82
2022-09-06T04:26:16.387Z,16.58
2022-09-06T04:28:42.835Z,16.35
2022-09-06T04:31:09.268Z,16.02
2022-09-06T04:33:38.146Z,16.67
2022-09-06T04:36:07.522Z,16.17
2022-09-06T04:38:40.005Z,17.65
2022-09-06T04:41:07.037Z,16.75
2022-09-06T04:43:36.414Z,17.80
2022-09-06T04:46:25.128Z,16.35
2022-09-06T04:48:53.458Z,16.50
2022-09-06T04:51:20.845Z,17.98
2022-09-06T04:53:47.304Z,17.38
2022-09-06T04:56:16.680Z,18.33
2022-09-06T04:58:44.308Z,16.83
2022-09-06T05:01:11.291Z,16.42
2022-09-06T05:03:38.244Z,15.82
2022-09-06T05:06:06.965Z,16.73
2022-09-06T05:08:33.550Z,16.17
2022-09-06T05:11:00.426Z,16.00
2022-09-06T05:13:29.228Z,15.68
2022-09-06T05:15:55.772Z,16.05
2022-09-06T05:18:22.203Z,16.38
2022-09-06T05:20:53.025Z,16.20
2022-09-06T05:23:20.718Z,15.85
2022-09-06T05:25:47.372Z,14.60
2022-09-06T05:28:14.291Z,15.02
2022-09-06T05:30:41.595Z,16.08
2022-09-06T05:33:10.225Z,14.73
2022-09-06T05:35:36.784Z,14.38
2022-09-06T05:38:03.534Z,14.55
2022-09-06T05:40:30.248Z,14.82
2022-09-06T05:42:56.742Z,14.75
2022-09-06T05:45:23.915Z,14.43
2022-09-06T05:47:50.419Z,13.88
2022-09-06T05:50:16.933Z,15.93
2022-09-06T05:52:43.407Z,16.20
2022-09-06T05:55:10.044Z,15.65
2022-09-06T05:57:36.546Z,14.18
2022-09-06T06:00:04.626Z,14.65
2022-09-06T06:02:31.153Z,14.50
2022-09-06T06:04:58.265Z,15.80
2022-09-06T06:07:24.781Z,15.57
2022-09-06T06:09:51.360Z,16.42
2022-09-06T06:12:17.797Z,16.75
2022-09-06T06:14:44.226Z,17.55
2022-09-06T06:17:11.233Z,18.00
2022-09-06T06:19:37.697Z,17.17
2022-09-06T06:22:04.277Z,17.90
2022-09-06T06:24:34.445Z,19.38
2022-09-06T06:27:00.908Z,18.00
2022-09-06T06:29:27.439Z,18.30
2022-09-06T06:31:53.962Z,18.92
2022-09-06T06:34:21.852Z,18.65
2022-09-06T06:36:48.358Z,19.63
2022-09-06T06:39:17.586Z,20.45
2022-09-06T06:41:44.275Z,22.10
2022-09-06T06:44:10.820Z,21.40
2022-09-06T06:46:38.504Z,21.92
2022-09-06T06:49:05.369Z,21.48
2022-09-06T06:51:33.766Z,22.48
2022-09-06T06:54:00.255Z,22.83
2022-09-06T06:56:35.202Z,20.65
2022-09-06T06:59:04.286Z,19.95
2022-09-06T07:01:33.153Z,20.25
2022-09-06T07:03:59.765Z,20.25
2022-09-06T07:09:15.744Z,19.40
2022-09-06T07:11:42.220Z,19.80
2022-09-06T07:14:08.925Z,19.70
2022-09-06T07:16:35.475Z,20.13
2022-09-06T07:19:02.195Z,18.55
2022-09-06T07:26:37.569Z,16.63
2022-09-06T07:29:05.807Z,17.38
2022-09-06T07:34:20.829Z,14.68
2022-09-06T07:36:48.163Z,15.77
2022-09-06T07:39:14.657Z,13.75
2022-09-06T07:41:41.111Z,14.05
2022-09-06T07:44:07.556Z,13.65
2022-09-06T07:46:34.443Z,12.63
2022-09-06T07:49:04.117Z,13.23
2022-09-06T07:51:30.959Z,11.65
2022-09-06T07:54:13.243Z,11.13
2022-09-06T07:56:43.977Z,12.15
2022-09-06T07:59:10.564Z,12.43
2022-09-06T08:01:38.549Z,12.18
2022-09-06T08:04:13.967Z,11.23
2022-09-06T08:09:29.959Z,12.25
2022-09-06T08:11:56.515Z,12.07
2022-09-06T08:14:23.064Z,13.23
2022-09-06T08:16:52.587Z,13.23
2022-09-06T08:19:19.029Z,15.18
2022-09-06T08:21:45.475Z,16.60
2022-09-06T08:24:11.937Z,16.77
2022-09-06T08:26:40.483Z,15.20
2022-09-06T08:29:08.660Z,15.77
2022-09-06T08:31:38.908Z,14.98
2022-09-06T08:34:06.090Z,15.45
2022-09-06T08:36:33.674Z,12.82
2022-09-06T08:39:02.270Z,13.40
2022-09-06T08:41:49.816Z,13.93
2022-09-06T08:47:12.219Z,12.13
2022-09-06T08:49:52.738Z,13.10
2022-09-06T08:53:13.102Z,13.07
2022-09-06T08:55:41.458Z,12.57
2022-09-06T08:58:32.386Z,11.03
2022-09-06T09:01:15.820Z,10.35
2022-09-06T09:03:43.749Z,8.90
2022-09-06T09:06:11.106Z,7.72
2022-09-06T09:08:59.719Z,7.75
2022-09-06T09:11:26.389Z,7.93
2022-09-06T09:14:00.303Z,6.47
2022-09-06T09:16:27.008Z,6.18
2022-09-06T09:19:00.979Z,6.10
2022-09-06T09:21:31.185Z,5.78
2022-09-06T09:24:03.257Z,6.10
2022-09-06T09:26:36.833Z,5.30
2022-09-06T09:29:06.385Z,5.90
2022-09-06T09:31:53.462Z,5.80
2022-09-06T09:34:33.990Z,4.90
2022-09-06T09:37:49.686Z,6.13
2022-09-06T09:40:25.327Z,4.93
2022-09-06T09:42:54.758Z,4.70
2022-09-06T09:45:28.964Z,4.60
2022-09-06T09:47:55.879Z,4.38
2022-09-06T09:50:35.692Z,3.78
2022-09-06T09:53:13.737Z,4.07
2022-09-06T09:55:41.655Z,4.20
2022-09-06T09:58:20.185Z,4.45
2022-09-06T10:00:46.714Z,4.18
2022-09-06T10:03:19.050Z,3.75
2022-09-06T10:06:02.537Z,3.67
2022-09-06T10:08:33.243Z,3.50
2022-09-06T10:11:00.232Z,3.72
2022-09-06T10:13:31.569Z,3.70
2022-09-06T10:15:59.875Z,3.28
2022-09-06T10:18:35.542Z,3.47
2022-09-06T10:21:13.509Z,3.17
2022-09-06T10:26:58.865Z,4.07
2022-09-06T10:29:55.897Z,8.02
2022-09-06T10:32:51.551Z,3.85
2022-09-06T10:35:26.492Z,2.85
2022-09-06T10:38:24.104Z,2.80
2022-09-06T10:41:21.422Z,3.13
2022-09-06T10:44:11.834Z,3.50
2022-09-06T10:46:43.479Z,3.38
2022-09-06T10:49:16.430Z,2.90
2022-09-06T10:51:46.694Z,2.83
2022-09-06T10:54:17.187Z,2.90
2022-09-06T10:56:56.442Z,4.30
2022-09-06T10:59:38.782Z,3.35
2022-09-06T11:02:05.744Z,3.30
2022-09-06T11:07:30.282Z,3.13
2022-09-06T11:12:41.865Z,3.47
2022-09-06T11:15:13.130Z,3.20
2022-09-06T11:17:54.414Z,3.92
2022-09-06T11:20:39.411Z,3.20
2022-09-06T11:23:27.702Z,3.15
2022-09-06T11:26:04.112Z,3.95
2022-09-06T11:28:39.208Z,3.40
2022-09-06T11:34:07.366Z,3.17
2022-09-06T11:36:45.041Z,3.00
2022-09-06T11:39:11.522Z,3.03
2022-09-06T11:41:40.785Z,3.67
2022-09-06T11:44:10.320Z,3.75
2022-09-06T11:46:40.935Z,3.65
2022-09-06T11:49:16.348Z,3.47
2022-09-06T11:51:44.928Z,3.83
2022-09-06T11:54:14.195Z,3.80
2022-09-06T11:56:46.705Z,3.47
2022-09-06T11:59:16.074Z,3.30
2022-09-06T12:02:00.235Z,3.90
2022-09-06T12:05:00.433Z,3.65
2022-09-06T12:07:31.899Z,3.38
2022-09-06T12:10:02.604Z,4.03
2022-09-06T12:12:45.786Z,2.83
2022-09-06T12:15:31.966Z,3.40
2022-09-06T12:17:59.941Z,3.40
2022-09-06T12:20:48.475Z,4.05
2022-09-06T12:23:50.640Z,3.67
2022-09-06T12:29:10.595Z,3.05
2022-09-06T12:31:44.099Z,3.38
2022-09-06T12:34:20.032Z,3.65
2022-09-06T12:37:05.641Z,3.78
2022-09-06T12:39:32.298Z,3.85
2022-09-06T12:42:05.812Z,3.10
2022-09-06T12:44:38.594Z,3.85
2022-09-06T12:47:11.489Z,3.85
2022-09-06T12:49:39.464Z,4.50
2022-09-06T12:52:15.636Z,4.72
2022-09-06T12:54:48.721Z,3.35
2022-09-06T12:57:24.305Z,3.85
2022-09-06T12:59:56.295Z,5.20
2022-09-06T13:02:42.698Z,4.10
2022-09-06T13:05:12.212Z,3.72
2022-09-06T13:07:46.751Z,3.35
2022-09-06T13:10:16.442Z,3.40
2022-09-06T13:12:50.329Z,3.22
2022-09-06T13:15:26.989Z,3.50
2022-09-06T13:18:14.653Z,3.92
2022-09-06T13:20:41.168Z,3.05
2022-09-06T13:23:10.662Z,4.00
2022-09-06T13:25:51.545Z,3.20
2022-09-06T13:28:26.732Z,3.72
2022-09-06T13:31:35.600Z,3.10
2022-09-06T13:34:02.076Z,3.30
2022-09-06T13:36:33.683Z,3.33
2022-09-06T13:39:03.447Z,3.42
2022-09-06T13:41:37.367Z,3.25
2022-09-06T13:44:18.541Z,3.20
2022-09-06T13:46:45.260Z,4.00
2022-09-06T13:49:11.853Z,3.58
2022-09-06T13:51:41.925Z,3.80
2022-09-06T13:54:11.297Z,4.32
2022-09-06T13:56:39.251Z,3.60
2022-09-06T13:59:07.205Z,3.40
2022-09-06T14:01:34.084Z,3.80
2022-09-06T14:04:04.022Z,3.35
2022-09-06T14:06:33.574Z,3.80
2022-09-06T14:09:07.422Z,3.20
2022-09-06T14:11:35.353Z,3.20
2022-09-06T14:14:01.837Z,3.25
2022-09-06T14:16:28.936Z,3.65
2022-09-06T14:18:55.622Z,3.60
2022-09-06T14:21:22.104Z,3.22
2022-09-06T14:23:51.000Z,3.45
2022-09-06T14:26:19.091Z,2.70
2022-09-06T14:28:45.633Z,2.70
2022-09-06T14:31:17.510Z,2.65
2022-09-06T14:33:44.390Z,2.40
2022-09-06T14:36:16.780Z,2.55
2022-09-06T14:38:45.307Z,2.72
2022-09-06T14:41:14.463Z,2.50
2022-09-06T14:43:48.998Z,2.70
2022-09-06T14:46:18.117Z,2.83
2022-09-06T14:48:45.466Z,2.65
2022-09-06T14:51:17.765Z,2.72
2022-09-06T14:53:45.301Z,2.45
2022-09-06T14:56:12.985Z,2.95
2022-09-06T14:58:40.473Z,3.03
2022-09-06T15:01:16.136Z,2.78
2022-09-06T15:03:46.973Z,2.55
2022-09-06T15:06:13.482Z,3.08
2022-09-06T15:08:39.972Z,2.53
2022-09-06T15:11:08.279Z,2.60
2022-09-06T15:13:37.133Z,2.50
2022-09-06T15:16:05.586Z,2.33
2022-09-06T15:18:33.115Z,2.72
2022-09-06T15:21:09.689Z,2.53
2022-09-06T15:23:36.847Z,2.75
2022-09-06T15:26:06.068Z,2.70
2022-09-06T15:28:37.343Z,2.80
2022-09-06T15:31:04.646Z,2.55
2022-09-06T15:33:32.740Z,2.92
2022-09-06T15:36:05.820Z,2.97
2022-09-06T15:38:36.952Z,2.50
2022-09-06T15:41:14.841Z,2.75
2022-09-06T15:43:47.944Z,2.55
2022-09-06T15:46:16.139Z,2.63
2022-09-06T15:48:45.624Z,3.58
2022-09-06T15:51:14.949Z,3.00
2022-09-06T15:53:42.104Z,3.60
2022-09-06T15:56:12.356Z,3.20
2022-09-06T15:58:39.210Z,3.58
2022-09-06T16:01:10.197Z,3.85
2022-09-06T16:03:39.200Z,3.20
2022-09-06T16:08:55.561Z,3.45
2022-09-06T16:11:21.985Z,3.15
2022-09-06T16:13:48.520Z,3.20
2022-09-06T16:16:16.671Z,3.28
2022-09-06T16:18:46.532Z,3.15
2022-09-06T16:21:19.138Z,3.30
2022-09-06T16:23:59.988Z,3.28
2022-09-06T16:26:29.356Z,3.17
2022-09-06T16:28:55.862Z,3.60
2022-09-06T16:31:22.643Z,3.33
2022-09-06T16:33:50.128Z,4.70
2022-09-06T16:36:18.889Z,4.65
2022-09-06T16:38:45.662Z,4.85
2022-09-06T16:41:19.654Z,5.78
2022-09-06T16:43:49.146Z,5.00
2022-09-06T16:46:16.159Z,5.25
2022-09-06T16:48:42.664Z,5.75
2022-09-06T16:51:11.581Z,5.85
2022-09-06T16:53:40.315Z,6.55
2022-09-06T16:56:11.537Z,7.00
2022-09-06T16:58:39.485Z,7.90
2022-09-06T17:01:06.200Z,7.50
2022-09-06T17:03:34.211Z,7.93
2022-09-06T17:06:00.688Z,7.60
2022-09-06T17:08:27.201Z,7.90
2022-09-06T17:10:53.697Z,6.25
2022-09-06T17:13:20.182Z,7.00
2022-09-06T17:16:12.277Z,7.00
2022-09-06T17:18:39.203Z,6.13
2022-09-06T17:21:06.076Z,7.15
2022-09-06T17:23:32.961Z,6.85
2022-09-06T17:26:00.098Z,7.50
2022-09-06T17:28:27.004Z,7.65
2022-09-06T17:30:53.551Z,7.90
2022-09-06T17:33:22.008Z,8.57
2022-09-06T17:35:48.524Z,8.57
2022-09-06T17:38:16.196Z,8.45
2022-09-06T17:40:43.376Z,7.90
2022-09-06T17:43:10.004Z,8.32
2022-09-06T17:45:38.122Z,8.93
2022-09-06T17:48:05.153Z,9.65
2022-09-06T17:50:32.497Z,9.63
2022-09-06T17:53:00.040Z,9.35
2022-09-06T17:55:28.842Z,10.50
2022-09-06T17:57:58.820Z,11.18
2022-09-06T18:00:26.189Z,11.32
2022-09-06T18:02:52.886Z,11.13
2022-09-06T18:05:19.416Z,12.07
2022-09-06T18:07:46.104Z,11.80
2022-09-06T18:10:14.974Z,12.38
2022-09-06T18:12:42.453Z,11.20
2022-09-06T18:15:09.611Z,10.32
2022-09-06T18:17:38.741Z,10.63
2022-09-06T18:20:06.048Z,10.90
2022-09-06T18:22:33.002Z,11.32
2022-09-06T18:24:59.586Z,10.50
2022-09-06T18:27:26.035Z,10.50
2022-09-06T18:29:52.525Z,10.63
2022-09-06T18:32:18.980Z,10.85
2022-09-06T18:34:45.459Z,10.07
2022-09-06T18:37:12.145Z,11.05
2022-09-06T18:39:39.558Z,10.57
2022-09-06T18:42:11.030Z,12.30
2022-09-06T18:44:38.189Z,11.23
2022-09-06T18:47:07.451Z,11.50
2022-09-06T18:49:35.211Z,12.40
2022-09-06T18:52:05.839Z,12.68
2022-09-06T18:54:33.015Z,12.35
2022-09-06T18:56:59.830Z,13.38
2022-09-06T18:59:26.770Z,14.32
2022-09-06T19:01:53.278Z,14.50
2022-09-06T19:04:19.958Z,14.15
2022-09-06T19:06:46.952Z,13.80
2022-09-06T19:09:16.231Z,14.07
2022-09-06T19:11:45.450Z,14.60
2022-09-06T19:14:12.289Z,14.32
2022-09-06T19:16:38.833Z,15.02
2022-09-06T19:19:08.706Z,15.43
2022-09-06T19:21:40.811Z,16.35
2022-09-06T19:24:10.042Z,15.57
2022-09-06T19:26:40.200Z,16.23
2022-09-06T19:29:11.059Z,16.60
2022-09-06T19:31:38.380Z,17.55
2022-09-06T19:34:05.459Z,18.27
2022-09-06T19:36:32.741Z,17.30
2022-09-06T19:39:04.409Z,18.15
2022-09-06T19:41:39.390Z,19.15
2022-09-06T19:44:08.417Z,20.35
2022-09-06T19:46:36.021Z,21.20
2022-09-06T19:49:03.295Z,20.30
2022-09-06T19:51:30.116Z,20.17
2022-09-06T19:54:00.028Z,17.95
2022-09-06T19:56:31.519Z,17.50
2022-09-06T19:58:59.566Z,13.93
2022-09-06T20:01:29.156Z,12.32
2022-09-06T20:03:56.426Z,12.30
2022-09-06T20:06:23.225Z,12.40
2022-09-06T20:08:54.046Z,10.80
2022-09-06T20:11:22.667Z,9.55
2022-09-06T20:13:49.785Z,9.05
2022-09-06T20:16:20.473Z,8.85
2022-09-06T20:18:47.639Z,8.65
2022-09-06T20:21:14.879Z,8.95
2022-09-06T20:23:41.549Z,8.80
2022-09-06T20:26:15.577Z,8.85
2022-09-06T20:28:44.035Z,8.35
2022-09-06T20:31:17.268Z,9.52
2022-09-06T20:33:49.322Z,8.70
2022-09-06T20:36:17.142Z,8.38
2022-09-06T20:38:44.939Z,9.27
2022-09-06T20:41:12.970Z,9.20
2022-09-06T20:43:40.438Z,8.88
2022-09-06T20:46:15.818Z,9.35
2022-09-06T20:48:44.950Z,8.93
2022-09-06T20:51:15.765Z,11.13
2022-09-06T20:53:42.590Z,10.20
2022-09-06T20:56:18.488Z,11.52
2022-09-06T20:58:56.814Z,11.38
2022-09-06T21:01:25.861Z,11.35
2022-09-06T21:03:55.610Z,11.68
2022-09-06T21:06:23.782Z,11.25
2022-09-06T21:08:50.733Z,11.75
2022-09-06T21:11:18.120Z,11.05
2022-09-06T21:13:49.384Z,10.63
2022-09-06T21:16:18.348Z,10.60
2022-09-06T21:18:51.582Z,11.65
2022-09-06T21:21:18.173Z,11.80
2022-09-06T21:23:44.699Z,12.00
2022-09-06T21:26:17.449Z,12.60
2022-09-06T21:28:45.554Z,11.52
2022-09-06T21:31:23.798Z,12.20
2022-09-06T21:33:55.431Z,11.45
2022-09-06T21:36:21.854Z,11.65
2022-09-06T21:38:50.569Z,11.75
2022-09-06T21:41:18.234Z,12.05
2022-09-06T21:43:45.712Z,12.88
2022-09-06T21:46:17.532Z,12.50
2022-09-06T21:48:46.751Z,12.38
2022-09-06T21:51:16.136Z,13.05
2022-09-06T21:53:44.902Z,13.30
2022-09-06T21:56:12.138Z,12.68
2022-09-06T21:58:39.940Z,13.00
2022-09-06T22:01:06.837Z,13.68
2022-09-06T22:03:36.706Z,13.52
2022-09-06T22:06:11.482Z,13.52
2022-09-06T22:08:38.873Z,13.05
2022-09-06T22:11:15.137Z,12.57
2022-09-06T22:13:42.545Z,13.18
2022-09-06T22:16:10.638Z,14.45
2022-09-06T22:18:37.409Z,14.63
2022-09-06T22:21:18.517Z,13.43
2022-09-06T22:23:56.960Z,14.38
2022-09-06T22:26:25.799Z,14.23
2022-09-06T22:28:56.930Z,13.80
2022-09-06T22:31:24.722Z,14.13
2022-09-06T22:33:51.513Z,14.18
2022-09-06T22:36:18.765Z,15.32
2022-09-06T22:38:45.258Z,14.18
2022-09-06T22:41:12.041Z,15.30
2022-09-06T22:43:38.832Z,14.10
2022-09-06T22:46:07.781Z,14.25
2022-09-06T22:48:35.039Z,15.30
2022-09-06T22:51:02.622Z,13.68
2022-09-06T22:53:30.537Z,15.40
2022-09-06T22:55:57.173Z,15.02
2022-09-06T22:58:25.050Z,15.02
2022-09-06T23:00:51.605Z,16.15
2022-09-06T23:03:18.802Z,15.63
2022-09-06T23:05:45.354Z,16.73
2022-09-06T23:08:12.101Z,16.35
2022-09-06T23:10:41.735Z,15.50
2022-09-06T23:13:09.195Z,15.80
2022-09-06T23:15:36.945Z,15.02
2022-09-06T23:18:04.109Z,15.85
2022-09-06T23:20:30.860Z,15.73
2022-09-06T23:22:57.300Z,16.00
2022-09-06T23:25:23.902Z,16.10
2022-09-06T23:27:50.364Z,17.05
2022-09-06T23:30:17.022Z,16.75
2022-09-06T23:32:43.484Z,17.33
2022-09-06T23:35:09.928Z,17.73
2022-09-06T23:37:36.683Z,18.90
2022-09-06T23:40:07.026Z,17.92
2022-09-06T23:42:35.492Z,20.30
2022-09-06T23:45:01.921Z,20.45
2022-09-06T23:47:28.495Z,20.27
2022-09-06T23:49:54.899Z,23.83
2022-09-06T23:52:21.334Z,24.65
2022-09-06T23:54:47.822Z,25.83
2022-09-06T23:57:14.286Z,26.75
2022-09-06T23:59:40.730Z,27.55
